sensor_id;sensor_type;location;lat;lon;timestamp;P1;durP1;ratioP1;P2;durP2;ratioP2
63005;SDS011;53704;52.532;6.426;2022-12-18T00:01:29;85.93;;;36.70;;
63005;SDS011;53704;52.532;6.426;2022-12-18T00:03:56;96.30;;;37.77;;
63005;SDS011;53704;52.532;6.426;2022-12-18T00:06:23;92.17;;;36.77;;
63005;SDS011;53704;52.532;6.426;2022-12-18T00:08:50;94.83;;;38.93;;
63005;SDS011;53704;52.532;6.426;2022-12-18T00:11:20;89.53;;;35.10;;
63005;SDS011;53704;52.532;6.426;2022-12-18T00:13:46;88.37;;;36.23;;
63005;SDS011;53704;52.532;6.426;2022-12-18T00:16:17;91.63;;;38.33;;
63005;SDS011;53704;52.532;6.426;2022-12-18T00:18:48;86.40;;;35.60;;
63005;SDS011;53704;52.532;6.426;2022-12-18T00:21:14;85.20;;;36.43;;
63005;SDS011;53704;52.532;6.426;2022-12-18T00:23:40;89.70;;;35.57;;
63005;SDS011;53704;52.532;6.426;2022-12-18T00:26:09;88.63;;;36.03;;
63005;SDS011;53704;52.532;6.426;2022-12-18T00:28:37;90.10;;;36.70;;
63005;SDS011;53704;52.532;6.426;2022-12-18T00:31:03;92.03;;;36.33;;
63005;SDS011;53704;52.532;6.426;2022-12-18T00:33:34;82.20;;;36.53;;
63005;SDS011;53704;52.532;6.426;2022-12-18T00:36:01;86.50;;;36.23;;
63005;SDS011;53704;52.532;6.426;2022-12-18T00:38:34;82.88;;;34.25;;
63005;SDS011;53704;52.532;6.426;2022-12-18T00:41:03;88.43;;;37.83;;
63005;SDS011;53704;52.532;6.426;2022-12-18T00:43:29;85.93;;;35.97;;
63005;SDS011;53704;52.532;6.426;2022-12-18T00:45:54;81.60;;;35.27;;
63005;SDS011;53704;52.532;6.426;2022-12-18T00:48:20;87.13;;;36.97;;
63005;SDS011;53704;52.532;6.426;2022-12-18T00:50:47;91.47;;;38.17;;
63005;SDS011;53704;52.532;6.426;2022-12-18T00:53:13;92.23;;;37.97;;
63005;SDS011;53704;52.532;6.426;2022-12-18T00:55:39;91.00;;;37.10;;
63005;SDS011;53704;52.532;6.426;2022-12-18T00:58:04;98.03;;;37.80;;
63005;SDS011;53704;52.532;6.426;2022-12-18T01:00:30;93.80;;;37.43;;
63005;SDS011;53704;52.532;6.426;2022-12-18T01:02:55;102.93;;;38.70;;
63005;SDS011;53704;52.532;6.426;2022-12-18T01:05:21;96.47;;;36.90;;
63005;SDS011;53704;52.532;6.426;2022-12-18T01:07:46;101.13;;;37.07;;
63005;SDS011;53704;52.532;6.426;2022-12-18T01:10:12;96.07;;;37.10;;
63005;SDS011;53704;52.532;6.426;2022-12-18T01:12:38;101.70;;;39.53;;
63005;SDS011;53704;52.532;6.426;2022-12-18T01:15:05;96.90;;;37.43;;
63005;SDS011;53704;52.532;6.426;2022-12-18T01:17:32;103.93;;;39.70;;
63005;SDS011;53704;52.532;6.426;2022-12-18T01:19:58;109.30;;;39.27;;
63005;SDS011;53704;52.532;6.426;2022-12-18T01:22:23;98.77;;;36.57;;
63005;SDS011;53704;52.532;6.426;2022-12-18T01:24:49;104.43;;;39.40;;
63005;SDS011;53704;52.532;6.426;2022-12-18T01:27:15;105.00;;;38.93;;
63005;SDS011;53704;52.532;6.426;2022-12-18T01:29:40;110.10;;;38.93;;
63005;SDS011;53704;52.532;6.426;2022-12-18T01:32:06;99.87;;;37.27;;
63005;SDS011;53704;52.532;6.426;2022-12-18T01:34:31;109.80;;;38.83;;
63005;SDS011;53704;52.532;6.426;2022-12-18T01:36:57;98.87;;;38.60;;
63005;SDS011;53704;52.532;6.426;2022-12-18T01:39:23;95.23;;;36.93;;
63005;SDS011;53704;52.532;6.426;2022-12-18T01:41:48;106.80;;;38.90;;
63005;SDS011;53704;52.532;6.426;2022-12-18T01:50:13;117.33;;;38.63;;
63005;SDS011;53704;52.532;6.426;2022-12-18T01:52:43;103.63;;;36.10;;
63005;SDS011;53704;52.532;6.426;2022-12-18T01:55:13;101.67;;;36.33;;
63005;SDS011;53704;52.532;6.426;2022-12-18T01:57:41;114.13;;;39.37;;
63005;SDS011;53704;52.532;6.426;2022-12-18T02:00:12;116.03;;;38.23;;
63005;SDS011;53704;52.532;6.426;2022-12-18T02:02:40;103.03;;;36.97;;
63005;SDS011;53704;52.532;6.426;2022-12-18T02:05:07;108.10;;;38.03;;
63005;SDS011;53704;52.532;6.426;2022-12-18T02:13:26;105.07;;;37.83;;
63005;SDS011;53704;52.532;6.426;2022-12-18T02:17:03;102.87;;;35.20;;
63005;SDS011;53704;52.532;6.426;2022-12-18T02:19:27;115.23;;;36.20;;
63005;SDS011;53704;52.532;6.426;2022-12-18T02:24:45;106.77;;;34.50;;
63005;SDS011;53704;52.532;6.426;2022-12-18T02:27:44;99.73;;;34.07;;
63005;SDS011;53704;52.532;6.426;2022-12-18T02:30:11;102.77;;;34.47;;
63005;SDS011;53704;52.532;6.426;2022-12-18T02:32:39;98.83;;;33.67;;
63005;SDS011;53704;52.532;6.426;2022-12-18T02:35:08;101.23;;;36.67;;
63005;SDS011;53704;52.532;6.426;2022-12-18T02:37:38;96.80;;;35.50;;
63005;SDS011;53704;52.532;6.426;2022-12-18T02:40:05;111.53;;;37.37;;
63005;SDS011;53704;52.532;6.426;2022-12-18T02:42:33;100.00;;;34.77;;
63005;SDS011;53704;52.532;6.426;2022-12-18T02:44:58;94.17;;;36.30;;
63005;SDS011;53704;52.532;6.426;2022-12-18T02:47:24;107.90;;;35.27;;
63005;SDS011;53704;52.532;6.426;2022-12-18T02:52:35;105.87;;;34.20;;
63005;SDS011;53704;52.532;6.426;2022-12-18T02:58:09;110.83;;;36.07;;
63005;SDS011;53704;52.532;6.426;2022-12-18T03:00:43;111.30;;;35.63;;
63005;SDS011;53704;52.532;6.426;2022-12-18T03:03:17;108.33;;;36.20;;
63005;SDS011;53704;52.532;6.426;2022-12-18T03:06:11;97.80;;;35.87;;
63005;SDS011;53704;52.532;6.426;2022-12-18T03:08:47;115.60;;;37.20;;
63005;SDS011;53704;52.532;6.426;2022-12-18T03:11:18;96.80;;;33.30;;
63005;SDS011;53704;52.532;6.426;2022-12-18T03:14:04;103.63;;;34.77;;
63005;SDS011;53704;52.532;6.426;2022-12-18T03:16:32;109.93;;;35.87;;
63005;SDS011;53704;52.532;6.426;2022-12-18T03:19:01;117.83;;;35.40;;
63005;SDS011;53704;52.532;6.426;2022-12-18T03:21:47;117.87;;;36.70;;
63005;SDS011;53704;52.532;6.426;2022-12-18T03:24:16;119.68;;;36.40;;
63005;SDS011;53704;52.532;6.426;2022-12-18T03:26:44;116.97;;;36.50;;
63005;SDS011;53704;52.532;6.426;2022-12-18T03:29:17;119.03;;;38.30;;
63005;SDS011;53704;52.532;6.426;2022-12-18T03:31:48;112.17;;;36.27;;
63005;SDS011;53704;52.532;6.426;2022-12-18T03:34:26;114.30;;;36.73;;
63005;SDS011;53704;52.532;6.426;2022-12-18T03:36:55;111.37;;;36.53;;
63005;SDS011;53704;52.532;6.426;2022-12-18T03:39:21;115.77;;;37.63;;
63005;SDS011;53704;52.532;6.426;2022-12-18T03:41:50;108.83;;;37.47;;
63005;SDS011;53704;52.532;6.426;2022-12-18T03:51:57;106.37;;;35.20;;
63005;SDS011;53704;52.532;6.426;2022-12-18T03:54:28;104.27;;;34.33;;
63005;SDS011;53704;52.532;6.426;2022-12-18T03:57:00;93.70;;;33.40;;
63005;SDS011;53704;52.532;6.426;2022-12-18T03:59:39;99.80;;;33.67;;
63005;SDS011;53704;52.532;6.426;2022-12-18T04:02:06;98.57;;;33.40;;
63005;SDS011;53704;52.532;6.426;2022-12-18T04:04:34;95.57;;;32.37;;
63005;SDS011;53704;52.532;6.426;2022-12-18T04:07:03;94.73;;;33.77;;
63005;SDS011;53704;52.532;6.426;2022-12-18T04:09:30;106.00;;;34.07;;
63005;SDS011;53704;52.532;6.426;2022-12-18T04:11:56;99.13;;;34.77;;
63005;SDS011;53704;52.532;6.426;2022-12-18T04:14:22;99.87;;;34.53;;
63005;SDS011;53704;52.532;6.426;2022-12-18T04:16:47;90.13;;;32.23;;
63005;SDS011;53704;52.532;6.426;2022-12-18T04:19:13;82.17;;;31.37;;
63005;SDS011;53704;52.532;6.426;2022-12-18T04:21:38;87.97;;;31.00;;
63005;SDS011;53704;52.532;6.426;2022-12-18T04:24:04;82.33;;;30.47;;
63005;SDS011;53704;52.532;6.426;2022-12-18T04:26:29;81.47;;;29.30;;
63005;SDS011;53704;52.532;6.426;2022-12-18T04:28:55;81.10;;;31.43;;
63005;SDS011;53704;52.532;6.426;2022-12-18T04:31:20;80.07;;;30.57;;
63005;SDS011;53704;52.532;6.426;2022-12-18T04:33:46;71.97;;;28.90;;
63005;SDS011;53704;52.532;6.426;2022-12-18T04:36:11;81.13;;;27.37;;
63005;SDS011;53704;52.532;6.426;2022-12-18T04:38:37;78.03;;;28.97;;
63005;SDS011;53704;52.532;6.426;2022-12-18T04:41:03;68.47;;;26.83;;
63005;SDS011;53704;52.532;6.426;2022-12-18T04:43:28;76.37;;;27.00;;
63005;SDS011;53704;52.532;6.426;2022-12-18T04:46:00;67.87;;;27.37;;
63005;SDS011;53704;52.532;6.426;2022-12-18T04:48:27;66.40;;;26.40;;
63005;SDS011;53704;52.532;6.426;2022-12-18T04:50:52;74.27;;;27.53;;
63005;SDS011;53704;52.532;6.426;2022-12-18T04:53:17;74.10;;;28.70;;
63005;SDS011;53704;52.532;6.426;2022-12-18T04:55:45;58.57;;;25.63;;
63005;SDS011;53704;52.532;6.426;2022-12-18T04:58:11;66.50;;;26.83;;
63005;SDS011;53704;52.532;6.426;2022-12-18T05:00:36;61.27;;;24.90;;
63005;SDS011;53704;52.532;6.426;2022-12-18T05:03:02;67.47;;;26.93;;
63005;SDS011;53704;52.532;6.426;2022-12-18T05:05:27;62.67;;;24.97;;
63005;SDS011;53704;52.532;6.426;2022-12-18T05:07:53;63.57;;;25.20;;
63005;SDS011;53704;52.532;6.426;2022-12-18T05:10:18;62.53;;;26.63;;
63005;SDS011;53704;52.532;6.426;2022-12-18T05:12:44;58.03;;;25.87;;
63005;SDS011;53704;52.532;6.426;2022-12-18T05:15:30;61.40;;;24.00;;
63005;SDS011;53704;52.532;6.426;2022-12-18T05:17:57;61.73;;;25.43;;
63005;SDS011;53704;52.532;6.426;2022-12-18T05:20:24;63.83;;;24.87;;
63005;SDS011;53704;52.532;6.426;2022-12-18T05:22:50;60.07;;;24.90;;
63005;SDS011;53704;52.532;6.426;2022-12-18T05:25:16;60.83;;;24.67;;
63005;SDS011;53704;52.532;6.426;2022-12-18T05:27:42;59.40;;;23.83;;
63005;SDS011;53704;52.532;6.426;2022-12-18T05:30:07;75.20;;;25.23;;
63005;SDS011;53704;52.532;6.426;2022-12-18T05:32:34;56.23;;;23.90;;
63005;SDS011;53704;52.532;6.426;2022-12-18T05:34:59;56.87;;;23.07;;
63005;SDS011;53704;52.532;6.426;2022-12-18T05:37:25;57.83;;;23.43;;
63005;SDS011;53704;52.532;6.426;2022-12-18T05:39:50;57.43;;;24.43;;
63005;SDS011;53704;52.532;6.426;2022-12-18T05:42:16;56.93;;;24.57;;
63005;SDS011;53704;52.532;6.426;2022-12-18T05:44:41;58.03;;;23.23;;
63005;SDS011;53704;52.532;6.426;2022-12-18T05:47:08;59.23;;;22.93;;
63005;SDS011;53704;52.532;6.426;2022-12-18T05:49:33;58.17;;;22.13;;
63005;SDS011;53704;52.532;6.426;2022-12-18T05:51:59;52.47;;;22.17;;
63005;SDS011;53704;52.532;6.426;2022-12-18T05:54:26;56.87;;;22.63;;
63005;SDS011;53704;52.532;6.426;2022-12-18T05:56:52;56.20;;;22.53;;
63005;SDS011;53704;52.532;6.426;2022-12-18T05:59:17;56.83;;;22.87;;
63005;SDS011;53704;52.532;6.426;2022-12-18T06:01:43;59.97;;;23.93;;
63005;SDS011;53704;52.532;6.426;2022-12-18T06:04:09;55.97;;;22.07;;
63005;SDS011;53704;52.532;6.426;2022-12-18T06:06:34;67.63;;;22.83;;
63005;SDS011;53704;52.532;6.426;2022-12-18T06:09:00;61.33;;;22.57;;
63005;SDS011;53704;52.532;6.426;2022-12-18T06:11:26;53.20;;;22.27;;
63005;SDS011;53704;52.532;6.426;2022-12-18T06:13:55;48.23;;;22.10;;
63005;SDS011;53704;52.532;6.426;2022-12-18T06:16:21;49.47;;;22.17;;
63005;SDS011;53704;52.532;6.426;2022-12-18T06:18:47;54.47;;;21.53;;
63005;SDS011;53704;52.532;6.426;2022-12-18T06:21:12;51.03;;;21.13;;
63005;SDS011;53704;52.532;6.426;2022-12-18T06:23:38;48.60;;;21.83;;
63005;SDS011;53704;52.532;6.426;2022-12-18T06:26:04;45.97;;;21.93;;
63005;SDS011;53704;52.532;6.426;2022-12-18T06:28:31;46.47;;;21.43;;
63005;SDS011;53704;52.532;6.426;2022-12-18T06:30:56;49.70;;;20.67;;
63005;SDS011;53704;52.532;6.426;2022-12-18T06:33:22;52.20;;;20.93;;
63005;SDS011;53704;52.532;6.426;2022-12-18T06:35:52;57.47;;;21.87;;
63005;SDS011;53704;52.532;6.426;2022-12-18T06:38:17;52.33;;;20.80;;
63005;SDS011;53704;52.532;6.426;2022-12-18T06:40:42;50.93;;;21.50;;
63005;SDS011;53704;52.532;6.426;2022-12-18T06:43:08;56.07;;;21.07;;
63005;SDS011;53704;52.532;6.426;2022-12-18T06:45:33;44.87;;;19.97;;
63005;SDS011;53704;52.532;6.426;2022-12-18T06:47:59;51.37;;;20.90;;
63005;SDS011;53704;52.532;6.426;2022-12-18T06:50:24;51.73;;;20.37;;
63005;SDS011;53704;52.532;6.426;2022-12-18T06:52:50;45.73;;;20.60;;
63005;SDS011;53704;52.532;6.426;2022-12-18T06:55:15;46.67;;;18.73;;
63005;SDS011;53704;52.532;6.426;2022-12-18T06:57:41;49.43;;;20.83;;
63005;SDS011;53704;52.532;6.426;2022-12-18T07:00:06;49.90;;;20.40;;
63005;SDS011;53704;52.532;6.426;2022-12-18T07:02:32;47.73;;;19.87;;
63005;SDS011;53704;52.532;6.426;2022-12-18T07:04:58;47.93;;;20.97;;
63005;SDS011;53704;52.532;6.426;2022-12-18T07:07:24;51.50;;;21.10;;
63005;SDS011;53704;52.532;6.426;2022-12-18T07:09:49;43.97;;;20.10;;
63005;SDS011;53704;52.532;6.426;2022-12-18T07:12:15;44.70;;;19.83;;
63005;SDS011;53704;52.532;6.426;2022-12-18T07:14:42;41.07;;;17.63;;
63005;SDS011;53704;52.532;6.426;2022-12-18T07:17:07;41.03;;;19.03;;
63005;SDS011;53704;52.532;6.426;2022-12-18T07:19:33;40.90;;;19.60;;
63005;SDS011;53704;52.532;6.426;2022-12-18T07:21:58;45.43;;;21.67;;
63005;SDS011;53704;52.532;6.426;2022-12-18T07:24:24;45.70;;;21.10;;
63005;SDS011;53704;52.532;6.426;2022-12-18T07:26:49;42.33;;;19.17;;
63005;SDS011;53704;52.532;6.426;2022-12-18T07:29:15;46.87;;;19.47;;
63005;SDS011;53704;52.532;6.426;2022-12-18T07:31:40;40.83;;;18.77;;
63005;SDS011;53704;52.532;6.426;2022-12-18T07:34:09;38.43;;;18.67;;
63005;SDS011;53704;52.532;6.426;2022-12-18T07:36:36;37.17;;;19.03;;
63005;SDS011;53704;52.532;6.426;2022-12-18T07:39:02;44.97;;;19.73;;
63005;SDS011;53704;52.532;6.426;2022-12-18T07:41:27;35.37;;;18.43;;
63005;SDS011;53704;52.532;6.426;2022-12-18T07:43:52;41.07;;;18.57;;
63005;SDS011;53704;52.532;6.426;2022-12-18T07:46:18;43.97;;;18.57;;
63005;SDS011;53704;52.532;6.426;2022-12-18T07:48:44;38.20;;;18.47;;
63005;SDS011;53704;52.532;6.426;2022-12-18T07:51:10;39.73;;;18.63;;
63005;SDS011;53704;52.532;6.426;2022-12-18T07:53:36;37.07;;;19.07;;
63005;SDS011;53704;52.532;6.426;2022-12-18T07:56:05;41.43;;;19.03;;
63005;SDS011;53704;52.532;6.426;2022-12-18T07:58:34;35.47;;;17.90;;
63005;SDS011;53704;52.532;6.426;2022-12-18T08:01:09;38.07;;;18.70;;
63005;SDS011;53704;52.532;6.426;2022-12-18T08:03:36;40.20;;;19.27;;
63005;SDS011;53704;52.532;6.426;2022-12-18T08:06:04;46.50;;;19.07;;
63005;SDS011;53704;52.532;6.426;2022-12-18T08:08:31;36.10;;;17.90;;
63005;SDS011;53704;52.532;6.426;2022-12-18T08:10:58;34.50;;;17.57;;
63005;SDS011;53704;52.532;6.426;2022-12-18T08:13:24;33.83;;;18.40;;
63005;SDS011;53704;52.532;6.426;2022-12-18T08:16:00;43.60;;;18.83;;
63005;SDS011;53704;52.532;6.426;2022-12-18T08:18:27;35.80;;;17.40;;
63005;SDS011;53704;52.532;6.426;2022-12-18T08:20:53;38.77;;;17.93;;
63005;SDS011;53704;52.532;6.426;2022-12-18T08:23:20;37.23;;;18.23;;
63005;SDS011;53704;52.532;6.426;2022-12-18T08:25:45;35.40;;;17.37;;
63005;SDS011;53704;52.532;6.426;2022-12-18T08:28:11;38.70;;;18.07;;
63005;SDS011;53704;52.532;6.426;2022-12-18T08:30:36;35.83;;;16.27;;
63005;SDS011;53704;52.532;6.426;2022-12-18T08:33:02;28.97;;;16.57;;
63005;SDS011;53704;52.532;6.426;2022-12-18T08:35:27;30.37;;;16.57;;
63005;SDS011;53704;52.532;6.426;2022-12-18T08:37:53;32.23;;;16.27;;
63005;SDS011;53704;52.532;6.426;2022-12-18T08:40:18;32.30;;;16.43;;
63005;SDS011;53704;52.532;6.426;2022-12-18T08:42:44;28.60;;;15.40;;
63005;SDS011;53704;52.532;6.426;2022-12-18T08:45:28;30.50;;;15.07;;
63005;SDS011;53704;52.532;6.426;2022-12-18T08:47:53;29.27;;;15.83;;
63005;SDS011;53704;52.532;6.426;2022-12-18T08:50:19;28.53;;;14.70;;
63005;SDS011;53704;52.532;6.426;2022-12-18T08:52:45;32.37;;;15.57;;
63005;SDS011;53704;52.532;6.426;2022-12-18T08:55:11;37.67;;;16.07;;
63005;SDS011;53704;52.532;6.426;2022-12-18T08:57:36;38.00;;;17.87;;
63005;SDS011;53704;52.532;6.426;2022-12-18T09:00:02;25.43;;;14.40;;
63005;SDS011;53704;52.532;6.426;2022-12-18T09:02:28;25.27;;;15.30;;
63005;SDS011;53704;52.532;6.426;2022-12-18T09:04:54;32.83;;;16.73;;
63005;SDS011;53704;52.532;6.426;2022-12-18T09:07:19;30.73;;;15.17;;
63005;SDS011;53704;52.532;6.426;2022-12-18T09:09:45;30.50;;;15.43;;
63005;SDS011;53704;52.532;6.426;2022-12-18T09:12:11;28.93;;;17.10;;
63005;SDS011;53704;52.532;6.426;2022-12-18T09:14:36;27.27;;;14.07;;
63005;SDS011;53704;52.532;6.426;2022-12-18T09:17:02;25.23;;;14.10;;
63005;SDS011;53704;52.532;6.426;2022-12-18T09:19:27;22.10;;;14.53;;
63005;SDS011;53704;52.532;6.426;2022-12-18T09:21:53;31.00;;;14.33;;
63005;SDS011;53704;52.532;6.426;2022-12-18T09:24:18;28.80;;;14.47;;
63005;SDS011;53704;52.532;6.426;2022-12-18T09:26:43;26.27;;;14.27;;
63005;SDS011;53704;52.532;6.426;2022-12-18T09:29:09;23.13;;;13.33;;
63005;SDS011;53704;52.532;6.426;2022-12-18T09:31:35;24.20;;;13.23;;
63005;SDS011;53704;52.532;6.426;2022-12-18T09:34:01;20.80;;;13.23;;
63005;SDS011;53704;52.532;6.426;2022-12-18T09:36:26;26.73;;;13.63;;
63005;SDS011;53704;52.532;6.426;2022-12-18T09:38:52;22.77;;;13.40;;
63005;SDS011;53704;52.532;6.426;2022-12-18T09:44:18;22.57;;;12.23;;
63005;SDS011;53704;52.532;6.426;2022-12-18T09:47:04;24.53;;;12.30;;
63005;SDS011;53704;52.532;6.426;2022-12-18T09:49:36;21.20;;;11.80;;
63005;SDS011;53704;52.532;6.426;2022-12-18T09:52:21;23.60;;;11.97;;
63005;SDS011;53704;52.532;6.426;2022-12-18T09:57:44;19.83;;;11.67;;
63005;SDS011;53704;52.532;6.426;2022-12-18T10:00:23;22.70;;;11.80;;
63005;SDS011;53704;52.532;6.426;2022-12-18T10:02:51;20.20;;;11.87;;
63005;SDS011;53704;52.532;6.426;2022-12-18T10:19:53;20.10;;;11.53;;
63005;SDS011;53704;52.532;6.426;2022-12-18T10:27:14;23.33;;;10.53;;
63005;SDS011;53704;52.532;6.426;2022-12-18T10:29:45;15.63;;;10.17;;
63005;SDS011;53704;52.532;6.426;2022-12-18T10:32:15;23.13;;;11.40;;
63005;SDS011;53704;52.532;6.426;2022-12-18T10:34:46;17.03;;;10.37;;
63005;SDS011;53704;52.532;6.426;2022-12-18T10:37:15;21.63;;;10.10;;
63005;SDS011;53704;52.532;6.426;2022-12-18T10:39:43;17.33;;;9.70;;
63005;SDS011;53704;52.532;6.426;2022-12-18T10:42:16;12.70;;;9.00;;
63005;SDS011;53704;52.532;6.426;2022-12-18T10:44:43;13.53;;;10.00;;
63005;SDS011;53704;52.532;6.426;2022-12-18T10:47:11;14.00;;;9.70;;
63005;SDS011;53704;52.532;6.426;2022-12-18T10:49:42;14.67;;;9.07;;
63005;SDS011;53704;52.532;6.426;2022-12-18T10:54:40;15.43;;;9.53;;
63005;SDS011;53704;52.532;6.426;2022-12-18T10:57:14;17.87;;;8.20;;
63005;SDS011;53704;52.532;6.426;2022-12-18T10:59:55;12.23;;;8.93;;
63005;SDS011;53704;52.532;6.426;2022-12-18T11:02:33;11.97;;;8.23;;
63005;SDS011;53704;52.532;6.426;2022-12-18T11:05:00;13.10;;;8.50;;
63005;SDS011;53704;52.532;6.426;2022-12-18T11:07:26;13.10;;;9.13;;
63005;SDS011;53704;52.532;6.426;2022-12-18T11:10:18;13.37;;;8.33;;
63005;SDS011;53704;52.532;6.426;2022-12-18T11:12:45;14.23;;;9.00;;
63005;SDS011;53704;52.532;6.426;2022-12-18T11:15:29;11.33;;;9.23;;
63005;SDS011;53704;52.532;6.426;2022-12-18T11:17:55;15.03;;;8.60;;
63005;SDS011;53704;52.532;6.426;2022-12-18T11:20:31;14.40;;;9.17;;
63005;SDS011;53704;52.532;6.426;2022-12-18T11:23:00;16.20;;;8.40;;
63005;SDS011;53704;52.532;6.426;2022-12-18T11:25:31;10.57;;;7.73;;
63005;SDS011;53704;52.532;6.426;2022-12-18T11:27:59;14.93;;;9.00;;
63005;SDS011;53704;52.532;6.426;2022-12-18T11:30:33;14.57;;;9.13;;
63005;SDS011;53704;52.532;6.426;2022-12-18T11:35:49;14.60;;;9.17;;
63005;SDS011;53704;52.532;6.426;2022-12-18T11:41:26;14.13;;;9.50;;
63005;SDS011;53704;52.532;6.426;2022-12-18T11:44:19;13.10;;;7.87;;
63005;SDS011;53704;52.532;6.426;2022-12-18T11:46:53;17.37;;;8.60;;
63005;SDS011;53704;52.532;6.426;2022-12-18T11:49:25;16.87;;;8.30;;
63005;SDS011;53704;52.532;6.426;2022-12-18T11:54:29;13.75;;;9.30;;
63005;SDS011;53704;52.532;6.426;2022-12-18T11:59:55;14.67;;;8.90;;
63005;SDS011;53704;52.532;6.426;2022-12-18T12:08:02;8.93;;;8.00;;
63005;SDS011;53704;52.532;6.426;2022-12-18T12:16:31;12.73;;;8.38;;
63005;SDS011;53704;52.532;6.426;2022-12-18T12:21:59;9.73;;;7.33;;
63005;SDS011;53704;52.532;6.426;2022-12-18T12:25:02;10.10;;;8.00;;
63005;SDS011;53704;52.532;6.426;2022-12-18T12:30:42;11.77;;;7.13;;
63005;SDS011;53704;52.532;6.426;2022-12-18T12:38:45;8.00;;;6.97;;
63005;SDS011;53704;52.532;6.426;2022-12-18T12:41:16;11.17;;;7.77;;
63005;SDS011;53704;52.532;6.426;2022-12-18T12:44:06;11.50;;;7.47;;
63005;SDS011;53704;52.532;6.426;2022-12-18T12:46:38;10.93;;;7.20;;
63005;SDS011;53704;52.532;6.426;2022-12-18T12:49:12;8.50;;;6.70;;
63005;SDS011;53704;52.532;6.426;2022-12-18T12:51:41;11.02;;;6.85;;
63005;SDS011;53704;52.532;6.426;2022-12-18T12:54:20;12.40;;;7.63;;
63005;SDS011;53704;52.532;6.426;2022-12-18T12:56:57;9.47;;;7.20;;
63005;SDS011;53704;52.532;6.426;2022-12-18T13:04:54;8.33;;;6.53;;
63005;SDS011;53704;52.532;6.426;2022-12-18T13:07:40;6.57;;;5.97;;
63005;SDS011;53704;52.532;6.426;2022-12-18T13:20:38;14.60;;;7.00;;
63005;SDS011;53704;52.532;6.426;2022-12-18T13:25:52;8.27;;;6.53;;
63005;SDS011;53704;52.532;6.426;2022-12-18T13:28:23;7.83;;;6.77;;
63005;SDS011;53704;52.532;6.426;2022-12-18T13:30:58;9.03;;;6.83;;
63005;SDS011;53704;52.532;6.426;2022-12-18T13:41:42;9.87;;;6.50;;
63005;SDS011;53704;52.532;6.426;2022-12-18T13:44:13;11.10;;;6.23;;
63005;SDS011;53704;52.532;6.426;2022-12-18T13:46:49;9.83;;;6.20;;
63005;SDS011;53704;52.532;6.426;2022-12-18T13:51:47;8.00;;;6.57;;
63005;SDS011;53704;52.532;6.426;2022-12-18T13:56:51;8.30;;;6.53;;
63005;SDS011;53704;52.532;6.426;2022-12-18T13:59:22;8.33;;;6.90;;
63005;SDS011;53704;52.532;6.426;2022-12-18T14:01:55;7.53;;;6.55;;
63005;SDS011;53704;52.532;6.426;2022-12-18T14:07:11;7.57;;;6.30;;
63005;SDS011;53704;52.532;6.426;2022-12-18T14:09:40;10.57;;;7.17;;
63005;SDS011;53704;52.532;6.426;2022-12-18T14:12:13;8.53;;;7.07;;
63005;SDS011;53704;52.532;6.426;2022-12-18T14:17:47;8.33;;;6.80;;
63005;SDS011;53704;52.532;6.426;2022-12-18T14:20:15;7.97;;;6.53;;
63005;SDS011;53704;52.532;6.426;2022-12-18T14:22:43;8.13;;;6.70;;
63005;SDS011;53704;52.532;6.426;2022-12-18T14:25:16;8.07;;;7.27;;
63005;SDS011;53704;52.532;6.426;2022-12-18T14:27:46;10.00;;;6.63;;
63005;SDS011;53704;52.532;6.426;2022-12-18T14:35:36;7.43;;;6.67;;
63005;SDS011;53704;52.532;6.426;2022-12-18T14:38:19;8.50;;;6.23;;
63005;SDS011;53704;52.532;6.426;2022-12-18T14:43:24;50.27;;;28.70;;
63005;SDS011;53704;52.532;6.426;2022-12-18T14:45:50;11.27;;;8.87;;
63005;SDS011;53704;52.532;6.426;2022-12-18T14:53:39;11.27;;;7.33;;
63005;SDS011;53704;52.532;6.426;2022-12-18T14:56:15;9.07;;;6.67;;
63005;SDS011;53704;52.532;6.426;2022-12-18T14:58:47;7.60;;;6.73;;
63005;SDS011;53704;52.532;6.426;2022-12-18T15:01:27;8.73;;;6.47;;
63005;SDS011;53704;52.532;6.426;2022-12-18T15:03:55;10.30;;;6.43;;
63005;SDS011;53704;52.532;6.426;2022-12-18T15:08:51;8.30;;;6.60;;
63005;SDS011;53704;52.532;6.426;2022-12-18T15:11:25;12.97;;;7.17;;
63005;SDS011;53704;52.532;6.426;2022-12-18T15:14:44;7.82;;;6.63;;
63005;SDS011;53704;52.532;6.426;2022-12-18T15:17:03;7.63;;;5.90;;
63005;SDS011;53704;52.532;6.426;2022-12-18T15:19:41;9.60;;;6.93;;
63005;SDS011;53704;52.532;6.426;2022-12-18T15:24:52;8.93;;;7.20;;
63005;SDS011;53704;52.532;6.426;2022-12-18T15:27:29;14.03;;;7.60;;
63005;SDS011;53704;52.532;6.426;2022-12-18T15:32:33;10.93;;;7.50;;
63005;SDS011;53704;52.532;6.426;2022-12-18T15:37:35;13.33;;;8.00;;
63005;SDS011;53704;52.532;6.426;2022-12-18T15:40:02;8.90;;;7.20;;
63005;SDS011;53704;52.532;6.426;2022-12-18T15:42:28;10.87;;;7.07;;
63005;SDS011;53704;52.532;6.426;2022-12-18T15:45:12;9.75;;;7.35;;
63005;SDS011;53704;52.532;6.426;2022-12-18T15:47:39;9.93;;;6.87;;
63005;SDS011;53704;52.532;6.426;2022-12-18T15:50:05;10.57;;;6.93;;
63005;SDS011;53704;52.532;6.426;2022-12-18T15:52:32;8.70;;;6.87;;
63005;SDS011;53704;52.532;6.426;2022-12-18T15:55:05;9.38;;;6.70;;
63005;SDS011;53704;52.532;6.426;2022-12-18T15:58:03;11.17;;;7.47;;
63005;SDS011;53704;52.532;6.426;2022-12-18T16:00:29;9.93;;;7.53;;
63005;SDS011;53704;52.532;6.426;2022-12-18T16:02:54;9.07;;;6.30;;
63005;SDS011;53704;52.532;6.426;2022-12-18T16:05:20;8.50;;;7.60;;
63005;SDS011;53704;52.532;6.426;2022-12-18T16:07:47;12.97;;;7.50;;
63005;SDS011;53704;52.532;6.426;2022-12-18T16:10:13;11.47;;;7.77;;
63005;SDS011;53704;52.532;6.426;2022-12-18T16:12:38;17.17;;;8.23;;
63005;SDS011;53704;52.532;6.426;2022-12-18T16:15:05;13.33;;;8.30;;
63005;SDS011;53704;52.532;6.426;2022-12-18T16:17:31;13.60;;;9.07;;
63005;SDS011;53704;52.532;6.426;2022-12-18T16:19:56;10.00;;;8.30;;
63005;SDS011;53704;52.532;6.426;2022-12-18T16:24:48;9.67;;;8.60;;
63005;SDS011;53704;52.532;6.426;2022-12-18T16:27:14;9.43;;;8.53;;
63005;SDS011;53704;52.532;6.426;2022-12-18T16:29:41;11.90;;;9.23;;
63005;SDS011;53704;52.532;6.426;2022-12-18T16:32:08;10.40;;;8.27;;
63005;SDS011;53704;52.532;6.426;2022-12-18T16:34:36;15.53;;;9.50;;
63005;SDS011;53704;52.532;6.426;2022-12-18T16:37:03;11.57;;;8.53;;
63005;SDS011;53704;52.532;6.426;2022-12-18T16:39:31;14.43;;;8.93;;
63005;SDS011;53704;52.532;6.426;2022-12-18T16:41:59;10.93;;;8.33;;
63005;SDS011;53704;52.532;6.426;2022-12-18T16:44:26;10.93;;;8.37;;
63005;SDS011;53704;52.532;6.426;2022-12-18T16:46:52;9.23;;;7.90;;
63005;SDS011;53704;52.532;6.426;2022-12-18T16:49:18;9.27;;;7.47;;
63005;SDS011;53704;52.532;6.426;2022-12-18T16:51:45;8.73;;;7.43;;
63005;SDS011;53704;52.532;6.426;2022-12-18T16:54:11;9.40;;;8.43;;
63005;SDS011;53704;52.532;6.426;2022-12-18T16:56:38;11.33;;;9.13;;
63005;SDS011;53704;52.532;6.426;2022-12-18T16:59:03;11.10;;;8.27;;
63005;SDS011;53704;52.532;6.426;2022-12-18T17:01:30;10.73;;;7.90;;
63005;SDS011;53704;52.532;6.426;2022-12-18T17:03:57;14.07;;;9.10;;
63005;SDS011;53704;52.532;6.426;2022-12-18T17:06:24;9.73;;;7.80;;
63005;SDS011;53704;52.532;6.426;2022-12-18T17:08:58;12.03;;;9.10;;
63005;SDS011;53704;52.532;6.426;2022-12-18T17:11:28;17.23;;;8.43;;